sensor_id;sensor_type;location;lat;lon;timestamp;pressure;altitude;pressure_sealevel;temperature;humidity
28448;BME280;15675;52.870;-1.416;2022-12-18T00:00:31;101566.06;;;1.07;100.00
28448;BME280;15675;52.870;-1.416;2022-12-18T00:02:57;101564.81;;;1.15;100.00
28448;BME280;15675;52.870;-1.416;2022-12-18T00:05:22;101564.31;;;1.06;100.00
28448;BME280;15675;52.870;-1.416;2022-12-18T00:07:48;101573.13;;;0.81;100.00
28448;BME280;15675;52.870;-1.416;2022-12-18T00:10:14;101565.22;;;0.76;100.00
28448;BME280;15675;52.870;-1.416;2022-12-18T00:12:39;101573.50;;;0.87;100.00
28448;BME280;15675;52.870;-1.416;2022-12-18T00:15:05;101572.25;;;1.10;100.00
28448;BME280;15675;52.870;-1.416;2022-12-18T00:17:31;101578.22;;;1.26;100.00
28448;BME280;15675;52.870;-1.416;2022-12-18T00:19:56;101574.66;;;1.24;100.00
28448;BME280;15675;52.870;-1.416;2022-12-18T00:22:22;101569.59;;;1.09;100.00
28448;BME280;15675;52.870;-1.416;2022-12-18T00:24:47;101566.59;;;1.01;100.00
28448;BME280;15675;52.870;-1.416;2022-12-18T00:27:13;101562.91;;;0.96;100.00
28448;BME280;15675;52.870;-1.416;2022-12-18T00:29:39;101568.66;;;0.92;100.00
28448;BME280;15675;52.870;-1.416;2022-12-18T00:32:04;101568.81;;;0.95;100.00
28448;BME280;15675;52.870;-1.416;2022-12-18T00:34:29;101570.19;;;1.19;100.00
28448;BME280;15675;52.870;-1.416;2022-12-18T00:36:55;101571.09;;;1.05;100.00
28448;BME280;15675;52.870;-1.416;2022-12-18T00:39:21;101570.47;;;1.41;100.00
28448;BME280;15675;52.870;-1.416;2022-12-18T00:41:46;101575.47;;;1.54;100.00
28448;BME280;15675;52.870;-1.416;2022-12-18T00:44:30;101571.72;;;1.32;100.00
28448;BME280;15675;52.870;-1.416;2022-12-18T00:46:56;101555.66;;;1.66;100.00
28448;BME280;15675;52.870;-1.416;2022-12-18T00:49:21;101549.91;;;1.87;100.00
28448;BME280;15675;52.870;-1.416;2022-12-18T00:51:47;101549.97;;;2.05;100.00
28448;BME280;15675;52.870;-1.416;2022-12-18T00:54:13;101548.53;;;2.10;100.00
28448;BME280;15675;52.870;-1.416;2022-12-18T00:56:39;101545.41;;;1.99;100.00
28448;BME280;15675;52.870;-1.416;2022-12-18T00:59:05;101544.59;;;1.51;100.00
28448;BME280;15675;52.870;-1.416;2022-12-18T01:01:31;101554.97;;;1.06;100.00
28448;BME280;15675;52.870;-1.416;2022-12-18T01:04:00;101559.13;;;1.35;100.00
28448;BME280;15675;52.870;-1.416;2022-12-18T01:06:26;101556.28;;;1.95;100.00
28448;BME280;15675;52.870;-1.416;2022-12-18T01:08:52;101552.75;;;2.42;100.00
28448;BME280;15675;52.870;-1.416;2022-12-18T01:11:20;101545.47;;;2.68;100.00
28448;BME280;15675;52.870;-1.416;2022-12-18T01:13:46;101542.66;;;2.82;100.00
28448;BME280;15675;52.870;-1.416;2022-12-18T01:16:13;101542.81;;;2.85;100.00
28448;BME280;15675;52.870;-1.416;2022-12-18T01:18:40;101542.88;;;2.86;100.00
28448;BME280;15675;52.870;-1.416;2022-12-18T01:21:11;101537.53;;;2.82;100.00
28448;BME280;15675;52.870;-1.416;2022-12-18T01:23:37;101535.81;;;2.46;96.89
28448;BME280;15675;52.870;-1.416;2022-12-18T01:26:12;101538.63;;;1.19;95.86
28448;BME280;15675;52.870;-1.416;2022-12-18T01:28:40;101530.84;;;0.86;100.00
28448;BME280;15675;52.870;-1.416;2022-12-18T01:31:21;101525.41;;;0.80;100.00
28448;BME280;15675;52.870;-1.416;2022-12-18T01:33:47;101523.09;;;0.55;100.00
28448;BME280;15675;52.870;-1.416;2022-12-18T01:36:28;101523.91;;;0.39;100.00
28448;BME280;15675;52.870;-1.416;2022-12-18T01:38:54;101516.59;;;0.45;100.00
28448;BME280;15675;52.870;-1.416;2022-12-18T01:41:24;101519.13;;;0.75;100.00
28448;BME280;15675;52.870;-1.416;2022-12-18T01:43:57;101529.06;;;1.00;100.00
28448;BME280;15675;52.870;-1.416;2022-12-18T01:46:24;101525.28;;;0.93;100.00
28448;BME280;15675;52.870;-1.416;2022-12-18T01:48:53;101530.94;;;0.73;100.00
28448;BME280;15675;52.870;-1.416;2022-12-18T01:51:21;101530.16;;;0.44;100.00
28448;BME280;15675;52.870;-1.416;2022-12-18T01:53:49;101534.09;;;0.24;100.00
28448;BME280;15675;52.870;-1.416;2022-12-18T01:56:16;101532.16;;;0.20;100.00
28448;BME280;15675;52.870;-1.416;2022-12-18T01:58:52;101536.31;;;0.32;100.00
28448;BME280;15675;52.870;-1.416;2022-12-18T02:01:22;101540.09;;;0.39;100.00
28448;BME280;15675;52.870;-1.416;2022-12-18T02:03:48;101533.22;;;0.83;100.00
28448;BME280;15675;52.870;-1.416;2022-12-18T02:06:19;101533.34;;;1.32;100.00
28448;BME280;15675;52.870;-1.416;2022-12-18T02:16:44;101520.63;;;1.98;100.00
28448;BME280;15675;52.870;-1.416;2022-12-18T02:27:47;101552.66;;;1.42;100.00
28448;BME280;15675;52.870;-1.416;2022-12-18T02:30:15;101553.56;;;1.43;100.00
28448;BME280;15675;52.870;-1.416;2022-12-18T02:32:44;101555.66;;;1.03;99.00
28448;BME280;15675;52.870;-1.416;2022-12-18T02:35:16;101558.28;;;1.20;98.67
28448;BME280;15675;52.870;-1.416;2022-12-18T02:37:43;101554.81;;;1.34;98.83
28448;BME280;15675;52.870;-1.416;2022-12-18T02:40:11;101553.94;;;0.88;100.00
28448;BME280;15675;52.870;-1.416;2022-12-18T02:42:39;101560.09;;;1.37;100.00
28448;BME280;15675;52.870;-1.416;2022-12-18T02:45:05;101542.44;;;1.75;100.00
28448;BME280;15675;52.870;-1.416;2022-12-18T02:47:37;101550.44;;;1.98;100.00
28448;BME280;15675;52.870;-1.416;2022-12-18T02:50:25;101562.47;;;2.15;100.00
28448;BME280;15675;52.870;-1.416;2022-12-18T02:53:14;101572.41;;;1.93;100.00
28448;BME280;15675;52.870;-1.416;2022-12-18T02:58:18;101559.13;;;2.00;98.94
28448;BME280;15675;52.870;-1.416;2022-12-18T03:03:50;101545.66;;;2.04;96.89
28448;BME280;15675;52.870;-1.416;2022-12-18T03:06:25;101545.72;;;2.22;96.52
28448;BME280;15675;52.870;-1.416;2022-12-18T03:08:57;101538.34;;;2.28;95.76
28448;BME280;15675;52.870;-1.416;2022-12-18T03:11:25;101531.97;;;2.03;94.94
28448;BME280;15675;52.870;-1.416;2022-12-18T03:14:15;101532.06;;;1.55;94.55
28448;BME280;15675;52.870;-1.416;2022-12-18T03:16:42;101531.00;;;1.35;95.80
28448;BME280;15675;52.870;-1.416;2022-12-18T03:19:12;101535.38;;;1.38;98.46
28448;BME280;15675;52.870;-1.416;2022-12-18T03:21:57;101527.53;;;1.35;98.82
28448;BME280;15675;52.870;-1.416;2022-12-18T03:24:26;101522.34;;;1.33;99.14
28448;BME280;15675;52.870;-1.416;2022-12-18T03:26:56;101525.63;;;1.64;99.89
28448;BME280;15675;52.870;-1.416;2022-12-18T03:29:39;101530.59;;;1.94;100.00
28448;BME280;15675;52.870;-1.416;2022-12-18T03:32:12;101519.50;;;1.93;98.75
28448;BME280;15675;52.870;-1.416;2022-12-18T03:34:42;101512.06;;;1.81;97.39
28448;BME280;15675;52.870;-1.416;2022-12-18T03:37:08;101503.88;;;1.72;96.77
28448;BME280;15675;52.870;-1.416;2022-12-18T03:39:35;101499.81;;;1.43;97.44
28448;BME280;15675;52.870;-1.416;2022-12-18T03:47:41;101466.53;;;0.63;100.00
28448;BME280;15675;52.870;-1.416;2022-12-18T03:52:52;101456.84;;;0.43;100.00
28448;BME280;15675;52.870;-1.416;2022-12-18T03:55:21;101462.00;;;0.13;100.00
28448;BME280;15675;52.870;-1.416;2022-12-18T03:57:48;101465.06;;;0.22;100.00
28448;BME280;15675;52.870;-1.416;2022-12-18T04:00:17;101459.78;;;0.19;100.00
28448;BME280;15675;52.870;-1.416;2022-12-18T04:02:47;101457.13;;;0.32;100.00
28448;BME280;15675;52.870;-1.416;2022-12-18T04:05:15;101456.19;;;0.77;100.00
28448;BME280;15675;52.870;-1.416;2022-12-18T04:07:43;101441.06;;;0.96;100.00
28448;BME280;15675;52.870;-1.416;2022-12-18T04:10:12;101456.41;;;0.96;100.00
28448;BME280;15675;52.870;-1.416;2022-12-18T04:12:38;101456.84;;;1.20;100.00
28448;BME280;15675;52.870;-1.416;2022-12-18T04:15:04;101457.81;;;1.39;100.00
28448;BME280;15675;52.870;-1.416;2022-12-18T04:17:30;101460.13;;;1.51;100.00
28448;BME280;15675;52.870;-1.416;2022-12-18T04:19:55;101456.53;;;1.14;100.00
28448;BME280;15675;52.870;-1.416;2022-12-18T04:22:21;101450.19;;;1.08;100.00
28448;BME280;15675;52.870;-1.416;2022-12-18T04:24:47;101440.94;;;1.26;100.00
28448;BME280;15675;52.870;-1.416;2022-12-18T04:27:13;101432.91;;;1.03;100.00
28448;BME280;15675;52.870;-1.416;2022-12-18T04:29:39;101445.94;;;0.92;100.00
28448;BME280;15675;52.870;-1.416;2022-12-18T04:32:04;101430.59;;;0.60;100.00
28448;BME280;15675;52.870;-1.416;2022-12-18T04:34:30;101424.88;;;0.49;100.00
28448;BME280;15675;52.870;-1.416;2022-12-18T04:36:55;101411.44;;;0.22;100.00
28448;BME280;15675;52.870;-1.416;2022-12-18T04:39:22;101401.13;;;0.06;100.00
28448;BME280;15675;52.870;-1.416;2022-12-18T04:41:47;101405.03;;;-0.01;100.00
28448;BME280;15675;52.870;-1.416;2022-12-18T04:44:13;101395.66;;;-0.30;100.00
28448;BME280;15675;52.870;-1.416;2022-12-18T04:46:39;101401.69;;;-0.58;100.00
28448;BME280;15675;52.870;-1.416;2022-12-18T04:49:05;101392.72;;;-0.52;100.00
28448;BME280;15675;52.870;-1.416;2022-12-18T04:51:31;101387.53;;;-0.53;100.00
28448;BME280;15675;52.870;-1.416;2022-12-18T04:53:56;101375.13;;;-0.62;100.00
28448;BME280;15675;52.870;-1.416;2022-12-18T04:56:22;101367.25;;;-0.80;100.00
28448;BME280;15675;52.870;-1.416;2022-12-18T04:58:50;101378.25;;;-0.81;100.00
28448;BME280;15675;52.870;-1.416;2022-12-18T05:01:17;101387.38;;;-0.84;100.00
28448;BME280;15675;52.870;-1.416;2022-12-18T05:03:43;101373.50;;;-0.75;100.00
28448;BME280;15675;52.870;-1.416;2022-12-18T05:06:09;101369.59;;;-0.83;100.00
28448;BME280;15675;52.870;-1.416;2022-12-18T05:08:35;101361.94;;;-0.98;100.00
28448;BME280;15675;52.870;-1.416;2022-12-18T05:11:02;101340.38;;;-1.03;100.00
28448;BME280;15675;52.870;-1.416;2022-12-18T05:13:28;101329.63;;;-1.12;100.00
28448;BME280;15675;52.870;-1.416;2022-12-18T05:15:55;101322.25;;;-1.08;100.00
28448;BME280;15675;52.870;-1.416;2022-12-18T05:18:23;101316.22;;;-0.95;100.00
28448;BME280;15675;52.870;-1.416;2022-12-18T05:20:50;101311.91;;;-0.96;100.00
28448;BME280;15675;52.870;-1.416;2022-12-18T05:23:15;101305.28;;;-1.07;100.00
28448;BME280;15675;52.870;-1.416;2022-12-18T05:25:41;101309.09;;;-1.00;100.00
28448;BME280;15675;52.870;-1.416;2022-12-18T05:28:07;101293.44;;;-1.07;100.00
28448;BME280;15675;52.870;-1.416;2022-12-18T05:30:32;101295.50;;;-1.14;100.00
28448;BME280;15675;52.870;-1.416;2022-12-18T05:33:00;101307.72;;;-1.24;100.00
28448;BME280;15675;52.870;-1.416;2022-12-18T05:35:25;101320.66;;;-1.06;100.00
28448;BME280;15675;52.870;-1.416;2022-12-18T05:37:52;101313.25;;;-1.16;100.00
28448;BME280;15675;52.870;-1.416;2022-12-18T05:40:17;101315.91;;;-1.14;100.00
28448;BME280;15675;52.870;-1.416;2022-12-18T05:42:43;101322.69;;;-1.00;100.00
28448;BME280;15675;52.870;-1.416;2022-12-18T05:45:08;101337.06;;;-0.87;100.00
28448;BME280;15675;52.870;-1.416;2022-12-18T05:47:34;101333.63;;;-1.02;100.00
28448;BME280;15675;52.870;-1.416;2022-12-18T05:50:00;101346.91;;;-0.93;100.00
28448;BME280;15675;52.870;-1.416;2022-12-18T05:52:25;101354.47;;;-0.95;100.00
28448;BME280;15675;52.870;-1.416;2022-12-18T05:54:51;101354.03;;;-0.88;100.00
28448;BME280;15675;52.870;-1.416;2022-12-18T05:57:16;101351.59;;;-0.86;100.00
28448;BME280;15675;52.870;-1.416;2022-12-18T05:59:42;101352.22;;;-0.75;100.00
28448;BME280;15675;52.870;-1.416;2022-12-18T06:02:07;101350.56;;;-0.75;100.00
28448;BME280;15675;52.870;-1.416;2022-12-18T06:04:33;101352.84;;;-0.64;100.00
28448;BME280;15675;52.870;-1.416;2022-12-18T06:06:59;101358.22;;;-0.75;100.00
28448;BME280;15675;52.870;-1.416;2022-12-18T06:09:25;101354.03;;;-0.59;100.00
28448;BME280;15675;52.870;-1.416;2022-12-18T06:11:52;101332.72;;;-0.75;100.00
28448;BME280;15675;52.870;-1.416;2022-12-18T06:14:17;101316.88;;;-0.69;100.00
28448;BME280;15675;52.870;-1.416;2022-12-18T06:16:43;101323.03;;;-0.80;100.00
28448;BME280;15675;52.870;-1.416;2022-12-18T06:19:15;101314.44;;;-0.67;100.00
28448;BME280;15675;52.870;-1.416;2022-12-18T06:21:41;101313.28;;;-0.73;100.00
28448;BME280;15675;52.870;-1.416;2022-12-18T06:24:07;101312.66;;;-0.68;100.00
28448;BME280;15675;52.870;-1.416;2022-12-18T06:26:33;101320.44;;;-0.67;100.00
28448;BME280;15675;52.870;-1.416;2022-12-18T06:29:01;101328.50;;;-0.59;100.00
28448;BME280;15675;52.870;-1.416;2022-12-18T06:31:27;101326.06;;;-0.58;100.00
28448;BME280;15675;52.870;-1.416;2022-12-18T06:33:53;101317.59;;;-0.72;100.00
28448;BME280;15675;52.870;-1.416;2022-12-18T06:36:18;101316.19;;;-0.66;100.00
28448;BME280;15675;52.870;-1.416;2022-12-18T06:38:44;101318.84;;;-0.65;100.00
28448;BME280;15675;52.870;-1.416;2022-12-18T06:41:16;101319.09;;;-0.60;100.00
28448;BME280;15675;52.870;-1.416;2022-12-18T06:43:42;101314.00;;;-0.60;100.00
28448;BME280;15675;52.870;-1.416;2022-12-18T06:46:08;101311.09;;;-0.66;100.00
28448;BME280;15675;52.870;-1.416;2022-12-18T06:48:34;101302.31;;;-0.57;100.00
28448;BME280;15675;52.870;-1.416;2022-12-18T06:51:00;101303.69;;;-0.62;100.00
28448;BME280;15675;52.870;-1.416;2022-12-18T06:53:26;101307.84;;;-0.49;100.00
28448;BME280;15675;52.870;-1.416;2022-12-18T06:55:51;101303.28;;;-0.55;100.00
28448;BME280;15675;52.870;-1.416;2022-12-18T06:58:17;101311.81;;;-0.54;100.00
28448;BME280;15675;52.870;-1.416;2022-12-18T07:00:43;101305.22;;;-0.50;100.00
28448;BME280;15675;52.870;-1.416;2022-12-18T07:03:08;101305.91;;;-0.53;100.00
28448;BME280;15675;52.870;-1.416;2022-12-18T07:05:39;101315.66;;;-0.46;100.00
28448;BME280;15675;52.870;-1.416;2022-12-18T07:08:05;101304.25;;;-0.53;100.00
28448;BME280;15675;52.870;-1.416;2022-12-18T07:10:33;101295.00;;;-0.50;100.00
28448;BME280;15675;52.870;-1.416;2022-12-18T07:12:58;101293.84;;;-0.56;100.00
28448;BME280;15675;52.870;-1.416;2022-12-18T07:15:24;101291.22;;;-0.57;100.00
28448;BME280;15675;52.870;-1.416;2022-12-18T07:17:49;101278.19;;;-0.62;100.00
28448;BME280;15675;52.870;-1.416;2022-12-18T07:20:15;101262.72;;;-0.50;100.00
28448;BME280;15675;52.870;-1.416;2022-12-18T07:22:41;101259.75;;;-0.58;100.00
28448;BME280;15675;52.870;-1.416;2022-12-18T07:25:07;101259.84;;;-0.71;100.00
28448;BME280;15675;52.870;-1.416;2022-12-18T07:27:34;101263.25;;;-0.56;100.00
28448;BME280;15675;52.870;-1.416;2022-12-18T07:29:59;101254.72;;;-0.56;100.00
28448;BME280;15675;52.870;-1.416;2022-12-18T07:32:25;101271.97;;;-0.52;100.00
28448;BME280;15675;52.870;-1.416;2022-12-18T07:34:50;101279.69;;;-0.50;100.00
28448;BME280;15675;52.870;-1.416;2022-12-18T07:37:16;101276.63;;;-0.45;100.00
28448;BME280;15675;52.870;-1.416;2022-12-18T07:39:41;101273.13;;;-0.47;100.00
28448;BME280;15675;52.870;-1.416;2022-12-18T07:42:08;101284.44;;;-0.27;100.00
28448;BME280;15675;52.870;-1.416;2022-12-18T07:44:52;101285.06;;;-0.31;100.00
28448;BME280;15675;52.870;-1.416;2022-12-18T07:47:17;101280.91;;;-0.14;100.00
28448;BME280;15675;52.870;-1.416;2022-12-18T07:49:43;101281.38;;;-0.36;100.00
28448;BME280;15675;52.870;-1.416;2022-12-18T07:52:08;101279.28;;;-0.28;100.00
28448;BME280;15675;52.870;-1.416;2022-12-18T07:54:34;101283.06;;;-0.37;100.00
28448;BME280;15675;52.870;-1.416;2022-12-18T07:57:00;101271.63;;;-0.28;100.00
28448;BME280;15675;52.870;-1.416;2022-12-18T07:59:25;101269.06;;;-0.28;100.00
28448;BME280;15675;52.870;-1.416;2022-12-18T08:01:51;101261.66;;;-0.39;100.00
28448;BME280;15675;52.870;-1.416;2022-12-18T08:04:17;101261.19;;;-0.31;100.00
28448;BME280;15675;52.870;-1.416;2022-12-18T08:06:42;101264.22;;;-0.24;100.00
28448;BME280;15675;52.870;-1.416;2022-12-18T08:09:09;101262.31;;;-0.43;100.00
28448;BME280;15675;52.870;-1.416;2022-12-18T08:11:35;101279.69;;;-0.21;100.00
28448;BME280;15675;52.870;-1.416;2022-12-18T08:14:01;101278.38;;;-0.14;100.00
28448;BME280;15675;52.870;-1.416;2022-12-18T08:16:26;101282.50;;;-0.16;100.00
28448;BME280;15675;52.870;-1.416;2022-12-18T08:18:53;101290.69;;;-0.07;100.00
28448;BME280;15675;52.870;-1.416;2022-12-18T08:21:22;101275.16;;;0.37;100.00
28448;BME280;15675;52.870;-1.416;2022-12-18T08:23:49;101280.13;;;0.50;100.00
28448;BME280;15675;52.870;-1.416;2022-12-18T08:26:15;101261.44;;;0.51;100.00
28448;BME280;15675;52.870;-1.416;2022-12-18T08:28:41;101261.94;;;0.12;100.00
28448;BME280;15675;52.870;-1.416;2022-12-18T08:31:07;101264.38;;;0.26;100.00
28448;BME280;15675;52.870;-1.416;2022-12-18T08:33:34;101268.47;;;0.39;100.00
28448;BME280;15675;52.870;-1.416;2022-12-18T08:36:01;101265.91;;;0.39;100.00
28448;BME280;15675;52.870;-1.416;2022-12-18T08:38:27;101260.88;;;0.57;100.00
28448;BME280;15675;52.870;-1.416;2022-12-18T08:41:03;101239.81;;;0.44;100.00
28448;BME280;15675;52.870;-1.416;2022-12-18T08:43:28;101240.31;;;0.22;100.00
28448;BME280;15675;52.870;-1.416;2022-12-18T08:46:14;101235.72;;;0.48;100.00
28448;BME280;15675;52.870;-1.416;2022-12-18T08:48:39;101238.53;;;0.69;100.00
28448;BME280;15675;52.870;-1.416;2022-12-18T08:51:05;101226.91;;;1.09;100.00
28448;BME280;15675;52.870;-1.416;2022-12-18T08:53:30;101210.16;;;0.81;100.00
28448;BME280;15675;52.870;-1.416;2022-12-18T08:55:56;101191.16;;;0.43;100.00
28448;BME280;15675;52.870;-1.416;2022-12-18T08:58:22;101191.09;;;0.25;100.00
28448;BME280;15675;52.870;-1.416;2022-12-18T09:00:48;101203.34;;;0.15;100.00
28448;BME280;15675;52.870;-1.416;2022-12-18T09:03:18;101181.13;;;0.29;100.00
28448;BME280;15675;52.870;-1.416;2022-12-18T09:05:47;101181.50;;;0.21;100.00
28448;BME280;15675;52.870;-1.416;2022-12-18T09:08:13;101193.41;;;0.20;100.00
28448;BME280;15675;52.870;-1.416;2022-12-18T09:10:43;101174.75;;;0.38;100.00
28448;BME280;15675;52.870;-1.416;2022-12-18T09:13:10;101179.94;;;0.56;100.00
28448;BME280;15675;52.870;-1.416;2022-12-18T09:15:46;101194.81;;;0.97;100.00
28448;BME280;15675;52.870;-1.416;2022-12-18T09:18:13;101192.31;;;1.33;100.00
28448;BME280;15675;52.870;-1.416;2022-12-18T09:20:40;101185.72;;;1.57;100.00
28448;BME280;15675;52.870;-1.416;2022-12-18T09:23:06;101182.09;;;1.51;100.00
28448;BME280;15675;52.870;-1.416;2022-12-18T09:25:32;101178.59;;;1.31;100.00
28448;BME280;15675;52.870;-1.416;2022-12-18T09:27:59;101180.41;;;1.52;100.00
28448;BME280;15675;52.870;-1.416;2022-12-18T09:30:25;101175.84;;;1.82;100.00
28448;BME280;15675;52.870;-1.416;2022-12-18T09:32:53;101184.84;;;1.92;100.00
28448;BME280;15675;52.870;-1.416;2022-12-18T09:35:18;101182.38;;;1.76;100.00
28448;BME280;15675;52.870;-1.416;2022-12-18T09:37:44;101167.44;;;1.85;100.00
28448;BME280;15675;52.870;-1.416;2022-12-18T09:40:14;101159.63;;;1.64;100.00
28448;BME280;15675;52.870;-1.416;2022-12-18T09:42:57;101143.75;;;0.99;100.00
28448;BME280;15675;52.870;-1.416;2022-12-18T09:45:24;101132.84;;;0.85;100.00
28448;BME280;15675;52.870;-1.416;2022-12-18T09:47:52;101126.38;;;0.75;100.00
28448;BME280;15675;52.870;-1.416;2022-12-18T09:50:35;101123.97;;;0.78;100.00
28448;BME280;15675;52.870;-1.416;2022-12-18T09:53:15;101127.03;;;0.71;100.00
28448;BME280;15675;52.870;-1.416;2022-12-18T09:55:46;101126.13;;;0.87;100.00
28448;BME280;15675;52.870;-1.416;2022-12-18T09:58:26;101120.28;;;0.90;100.00
28448;BME280;15675;52.870;-1.416;2022-12-18T10:00:54;101116.63;;;1.02;100.00
28448;BME280;15675;52.870;-1.416;2022-12-18T10:03:20;101115.47;;;0.96;100.00
28448;BME280;15675;52.870;-1.416;2022-12-18T10:08:24;101102.81;;;0.81;100.00
28448;BME280;15675;52.870;-1.416;2022-12-18T10:10:57;101088.31;;;0.80;100.00
28448;BME280;15675;52.870;-1.416;2022-12-18T10:16:20;101081.28;;;0.94;100.00
28448;BME280;15675;52.870;-1.416;2022-12-18T10:24:58;101069.81;;;0.85;100.00
28448;BME280;15675;52.870;-1.416;2022-12-18T10:27:26;101064.19;;;1.11;100.00
28448;BME280;15675;52.870;-1.416;2022-12-18T10:29:52;101064.19;;;1.11;100.00
28448;BME280;15675;52.870;-1.416;2022-12-18T10:32:21;101047.03;;;1.08;100.00
28448;BME280;15675;52.870;-1.416;2022-12-18T10:34:49;101045.22;;;0.88;100.00
28448;BME280;15675;52.870;-1.416;2022-12-18T10:37:21;101045.44;;;1.10;100.00
28448;BME280;15675;52.870;-1.416;2022-12-18T10:42:37;101032.50;;;1.07;100.00
28448;BME280;15675;52.870;-1.416;2022-12-18T10:45:11;101033.38;;;1.26;100.00
28448;BME280;15675;52.870;-1.416;2022-12-18T10:47:42;101030.81;;;1.26;100.00
28448;BME280;15675;52.870;-1.416;2022-12-18T10:50:19;101015.59;;;1.11;100.00
28448;BME280;15675;52.870;-1.416;2022-12-18T10:52:53;101003.41;;;1.23;100.00
28448;BME280;15675;52.870;-1.416;2022-12-18T10:55:19;101005.75;;;1.18;100.00
28448;BME280;15675;52.870;-1.416;2022-12-18T10:57:45;101002.81;;;1.29;100.00
28448;BME280;15675;52.870;-1.416;2022-12-18T11:00:28;100996.13;;;1.13;100.00
28448;BME280;15675;52.870;-1.416;2022-12-18T11:02:55;100998.50;;;1.28;100.00
28448;BME280;15675;52.870;-1.416;2022-12-18T11:07:50;100978.44;;;0.99;100.00
28448;BME280;15675;52.870;-1.416;2022-12-18T11:10:18;100973.31;;;1.17;100.00
28448;BME280;15675;52.870;-1.416;2022-12-18T11:12:44;100981.91;;;1.19;100.00
28448;BME280;15675;52.870;-1.416;2022-12-18T11:15:27;100967.31;;;1.17;100.00
28448;BME280;15675;52.870;-1.416;2022-12-18T11:17:55;100968.59;;;1.07;100.00
28448;BME280;15675;52.870;-1.416;2022-12-18T11:20:30;100955.03;;;1.10;100.00
28448;BME280;15675;52.870;-1.416;2022-12-18T11:23:05;100950.97;;;0.95;100.00
28448;BME280;15675;52.870;-1.416;2022-12-18T11:25:36;100943.69;;;0.85;100.00
28448;BME280;15675;52.870;-1.416;2022-12-18T11:28:25;100933.38;;;0.83;100.00
28448;BME280;15675;52.870;-1.416;2022-12-18T11:31:28;100929.59;;;0.93;100.00
28448;BME280;15675;52.870;-1.416;2022-12-18T11:33:56;100913.75;;;1.20;100.00
28448;BME280;15675;52.870;-1.416;2022-12-18T11:36:23;100926.88;;;1.28;100.00
28448;BME280;15675;52.870;-1.416;2022-12-18T11:38:52;100903.13;;;1.30;100.00
28448;BME280;15675;52.870;-1.416;2022-12-18T11:41:30;100900.00;;;1.18;100.00
28448;BME280;15675;52.870;-1.416;2022-12-18T11:44:29;100882.84;;;1.35;100.00
28448;BME280;15675;52.870;-1.416;2022-12-18T11:47:09;100882.78;;;1.14;100.00
28448;BME280;15675;52.870;-1.416;2022-12-18T11:49:36;100888.97;;;1.19;100.00
28448;BME280;15675;52.870;-1.416;2022-12-18T11:52:28;100879.56;;;1.37;100.00
28448;BME280;15675;52.870;-1.416;2022-12-18T11:54:59;100887.41;;;1.23;100.00
28448;BME280;15675;52.870;-1.416;2022-12-18T12:11:41;100846.56;;;1.44;100.00
28448;BME280;15675;52.870;-1.416;2022-12-18T12:14:47;100852.00;;;1.51;100.00
28448;BME280;15675;52.870;-1.416;2022-12-18T12:30:52;100801.19;;;1.61;100.00
28448;BME280;15675;52.870;-1.416;2022-12-18T12:36:12;100797.72;;;1.80;100.00
28448;BME280;15675;52.870;-1.416;2022-12-18T12:38:42;100791.84;;;1.82;100.00
28448;BME280;15675;52.870;-1.416;2022-12-18T12:41:14;100794.66;;;1.67;100.00
28448;BME280;15675;52.870;-1.416;2022-12-18T12:44:04;100778.44;;;1.67;100.00
28448;BME280;15675;52.870;-1.416;2022-12-18T12:46:33;100775.16;;;1.92;100.00
28448;BME280;15675;52.870;-1.416;2022-12-18T12:49:05;100767.88;;;1.80;100.00
28448;BME280;15675;52.870;-1.416;2022-12-18T12:51:39;100760.44;;;1.86;100.00
28448;BME280;15675;52.870;-1.416;2022-12-18T12:54:17;100754.22;;;1.80;100.00
28448;BME280;15675;52.870;-1.416;2022-12-18T13:01:53;100745.34;;;1.71;100.00
28448;BME280;15675;52.870;-1.416;2022-12-18T13:07:20;100735.84;;;1.90;100.00
28448;BME280;15675;52.870;-1.416;2022-12-18T13:13:14;100722.34;;;1.94;100.00
28448;BME280;15675;52.870;-1.416;2022-12-18T13:16:07;100703.59;;;1.95;100.00
28448;BME280;15675;52.870;-1.416;2022-12-18T13:18:33;100700.09;;;1.70;100.00
28448;BME280;15675;52.870;-1.416;2022-12-18T13:25:54;100677.16;;;1.73;100.00
28448;BME280;15675;52.870;-1.416;2022-12-18T13:31:06;100673.81;;;1.75;100.00
28448;BME280;15675;52.870;-1.416;2022-12-18T13:36:28;100680.25;;;1.65;100.00
28448;BME280;15675;52.870;-1.416;2022-12-18T13:39:33;100663.72;;;1.57;100.00
28448;BME280;15675;52.870;-1.416;2022-12-18T13:42:34;100655.00;;;1.51;100.00
28448;BME280;15675;52.870;-1.416;2022-12-18T13:45:39;100650.00;;;1.54;100.00
28448;BME280;15675;52.870;-1.416;2022-12-18T13:48:15;100645.56;;;1.50;100.00
28448;BME280;15675;52.870;-1.416;2022-12-18T13:50:41;100642.25;;;1.53;100.00
28448;BME280;15675;52.870;-1.416;2022-12-18T13:53:19;100628.47;;;1.49;100.00
28448;BME280;15675;52.870;-1.416;2022-12-18T13:55:46;100618.06;;;1.45;100.00
28448;BME280;15675;52.870;-1.416;2022-12-18T13:58:12;100611.38;;;1.48;100.00
28448;BME280;15675;52.870;-1.416;2022-12-18T14:00:42;100600.78;;;1.39;100.00
28448;BME280;15675;52.870;-1.416;2022-12-18T14:03:20;100601.22;;;1.50;100.00
28448;BME280;15675;52.870;-1.416;2022-12-18T14:05:52;100595.72;;;1.41;100.00
28448;BME280;15675;52.870;-1.416;2022-12-18T14:08:20;100589.00;;;1.43;100.00
28448;BME280;15675;52.870;-1.416;2022-12-18T14:10:47;100580.44;;;1.42;100.00
28448;BME280;15675;52.870;-1.416;2022-12-18T14:13:35;100572.22;;;1.51;100.00
28448;BME280;15675;52.870;-1.416;2022-12-18T14:16:04;100560.81;;;1.41;100.00
28448;BME280;15675;52.870;-1.416;2022-12-18T14:18:38;100565.13;;;1.44;100.00
28448;BME280;15675;52.870;-1.416;2022-12-18T14:21:04;100565.97;;;1.43;100.00
28448;BME280;15675;52.870;-1.416;2022-12-18T14:23:38;100566.66;;;1.38;100.00
28448;BME280;15675;52.870;-1.416;2022-12-18T14:26:27;100551.66;;;1.48;100.00
28448;BME280;15675;52.870;-1.416;2022-12-18T14:29:26;100548.00;;;1.41;100.00